Terminal Aerodrome Forecast
Issued by NWS

Home | Current Version | Previous Version | Text Only | Print | Product List | Glossary On
Versions: 1 2 3 4 5 6 7 8 9 10 11 12 13 14 15 16 17 18 19 20 21 22 23
000
FTUS45 KREV 260700 AAA
TAFCXP
TAF AMD
KCXP 260751Z 2608/2706 07004KT P6SM VCSH SCT030 OVC040
     FM261200 VRB04KT P6SM SCT040
     FM261900 08011KT P6SM SCT060
     FM270400 VRB03KT P6SM FEW070=

USA.gov is the U.S. government's official web portal to all federal, state and local government web resources and services.